Time;durP1;ratioP1;P1;durP2;ratioP2;P2;SDS_P1;SDS_P2;PMS_P1;PMS_P2;Temp;Humidity;BMP_temperature;BMP_pressure;BME280_temperature;BME280_humidity;BME280_pressure;Samples;Min_cycle;Max_cycle;Signal;HPM_P1;HPM_P2
2024/01/02 00:02:33;;;;;;;27.50;25.13;;;7.60;87.70;;;;;;12497986;28;20037;-73
2024/01/02 00:08:34;;;;;;;34.78;27.52;;;7.60;87.60;;;;;;12510782;28;20041;-73
2024/01/02 00:14:36;;;;;;;30.63;27.65;;;7.50;87.50;;;;;;12510623;28;20357;-75
2024/01/02 00:20:37;;;;;;;68.63;33.03;;;7.50;87.50;;;;;;12509372;28;20366;-75
2024/01/02 00:26:40;;;;;;;41.95;28.17;;;7.30;87.40;;;;;;12510093;28;20045;-75
2024/01/02 00:32:41;;;;;;;25.60;22.13;;;7.20;87.10;;;;;;12508559;28;20434;-75
2024/01/02 00:38:43;;;;;;;20.40;18.33;;;7.00;87.40;;;;;;12509406;28;20036;-75
2024/01/02 00:44:44;;;;;;;30.83;17.05;;;7.00;87.30;;;;;;12508083;28;20033;-75
2024/01/02 00:50:46;;;;;;;23.48;19.67;;;6.90;87.10;;;;;;12491413;28;20482;-75
2024/01/02 00:56:47;;;;;;;19.98;16.30;;;6.90;87.30;;;;;;12491433;28;20454;-73
2024/01/02 01:02:49;;;;;;;17.73;16.05;;;7.00;87.50;;;;;;12507293;28;20037;-74
2024/01/02 01:08:50;;;;;;;24.73;22.35;;;7.10;87.30;;;;;;12506828;28;20041;-75
2024/01/02 01:14:52;;;;;;;24.85;22.17;;;7.10;87.40;;;;;;12507412;28;20025;-75
2024/01/02 01:20:54;;;;;;;23.00;20.98;;;7.30;87.50;;;;;;12489803;28;20040;-75
2024/01/02 01:26:55;;;;;;;43.80;19.27;;;7.20;86.90;;;;;;12506096;28;20033;-75
2024/01/02 01:32:57;;;;;;;21.65;19.58;;;7.10;87.10;;;;;;12489243;28;20044;-75
2024/01/02 01:38:58;;;;;;;18.08;16.42;;;7.00;87.30;;;;;;12506592;28;20038;-73
2024/01/02 01:45:00;;;;;;;17.67;15.80;;;7.00;87.10;;;;;;12505234;28;20043;-73
2024/01/02 01:51:01;;;;;;;15.65;12.07;;;6.90;87.10;;;;;;12504871;28;20041;-73
2024/01/02 01:57:04;;;;;;;64.78;21.58;;;6.90;87.30;;;;;;12504677;28;20033;-73
2024/01/02 02:03:06;;;;;;;34.90;17.80;;;6.80;87.20;;;;;;12488108;28;20040;-74
2024/01/02 02:09:08;;;;;;;14.90;12.63;;;6.70;86.90;;;;;;12504221;28;20037;-75
2024/01/02 02:15:09;;;;;;;17.20;13.60;;;6.60;86.90;;;;;;12504055;28;20040;-75
2024/01/02 02:21:11;;;;;;;21.98;13.32;;;6.60;87.20;;;;;;12503884;28;20041;-75
2024/01/02 02:27:15;;;;;;;31.38;15.10;;;6.60;87.20;;;;;;12502878;28;20034;-75
2024/01/02 02:33:17;;;;;;;21.23;11.73;;;6.60;87.20;;;;;;12503392;28;20044;-74
2024/01/02 02:39:18;;;;;;;24.90;12.25;;;6.70;87.20;;;;;;12486987;28;20026;-73
2024/01/02 02:45:20;;;;;;;39.88;19.17;;;6.80;87.10;;;;;;12504360;28;20469;-72
2024/01/02 02:51:22;;;;;;;14.85;13.23;;;6.60;86.80;;;;;;12503019;28;20041;-73
2024/01/02 02:57:24;;;;;;;20.10;14.25;;;6.40;86.70;;;;;;12504076;28;20037;-72
2024/01/02 03:03:26;;;;;;;14.95;11.70;;;6.20;86.90;;;;;;12504020;28;20033;-73
2024/01/02 03:09:27;;;;;;;14.52;10.38;;;6.20;87.10;;;;;;12502447;28;20049;-75
2024/01/02 03:15:29;;;;;;;13.48;10.07;;;6.30;86.90;;;;;;12503703;28;20026;-75
2024/01/02 03:21:30;;;;;;;13.85;9.77;;;6.20;86.90;;;;;;12502282;28;20050;-74
2024/01/02 03:27:32;;;;;;;43.85;15.80;;;6.20;86.80;;;;;;12503426;28;20040;-74
2024/01/02 03:33:33;;;;;;;21.02;19.13;;;6.20;86.80;;;;;;12503263;28;20037;-75
2024/01/02 03:39:35;;;;;;;16.95;14.23;;;6.20;86.80;;;;;;12505579;28;20030;-75
2024/01/02 03:45:36;;;;;;;12.98;10.88;;;6.10;86.70;;;;;;12512048;28;20041;-75
2024/01/02 03:51:39;;;;;;;11.13;9.63;;;6.20;87.10;;;;;;12512396;28;20040;-75
2024/01/02 03:57:41;;;;;;;12.95;11.57;;;6.40;86.90;;;;;;12511398;28;20361;-73
2024/01/02 04:03:42;;;;;;;13.65;10.18;;;6.30;86.80;;;;;;12511187;28;20033;-73
2024/01/02 04:09:44;;;;;;;13.73;9.45;;;6.40;86.90;;;;;;12511819;28;20155;-73
2024/01/02 04:15:45;;;;;;;18.55;13.77;;;6.50;87.00;;;;;;12509517;28;20026;-75
2024/01/02 04:21:47;;;;;;;31.67;17.35;;;6.60;86.80;;;;;;12510348;28;20037;-75
2024/01/02 04:27:54;;;;;;;21.05;13.77;;;6.50;86.70;;;;;;12510779;28;20033;-75
2024/01/02 04:33:55;;;;;;;11.43;9.88;;;6.30;86.60;;;;;;12508529;28;20045;-75
2024/01/02 04:39:57;;;;;;;14.93;11.48;;;6.20;86.80;;;;;;12509395;28;20034;-75
2024/01/02 04:45:59;;;;;;;19.30;17.30;;;6.20;86.70;;;;;;12509246;28;20029;-75
2024/01/02 04:52:00;;;;;;;25.10;15.40;;;6.10;86.70;;;;;;12506849;28;20358;-74
2024/01/02 04:58:03;;;;;;;14.18;10.23;;;6.20;86.90;;;;;;12508587;28;20041;-75
2024/01/02 05:04:05;;;;;;;13.90;10.55;;;6.10;86.70;;;;;;12508449;28;20029;-75
2024/01/02 05:10:07;;;;;;;20.33;17.25;;;6.10;86.80;;;;;;12508025;28;20394;-75
2024/01/02 05:16:08;;;;;;;18.55;9.55;;;6.20;87.00;;;;;;12507836;28;20097;-75
2024/01/02 05:22:10;;;;;;;75.25;21.85;;;6.20;86.90;;;;;;12507523;28;20036;-74
2024/01/02 05:28:11;;;;;;;14.82;10.63;;;6.30;87.10;;;;;;12507216;28;20033;-75
2024/01/02 05:34:13;;;;;;;11.45;9.57;;;6.40;87.00;;;;;;12506903;28;20021;-75
2024/01/02 05:40:15;;;;;;;20.48;18.60;;;6.20;86.80;;;;;;12506724;28;20040;-75
2024/01/02 05:46:16;;;;;;;13.50;10.30;;;6.20;86.90;;;;;;12505297;28;20033;-75
2024/01/02 05:52:18;;;;;;;13.13;9.55;;;6.20;87.10;;;;;;12506091;28;20033;-75
2024/01/02 05:58:19;;;;;;;10.23;8.63;;;6.20;87.00;;;;;;12505842;28;20036;-75
2024/01/02 06:04:21;;;;;;;13.38;11.90;;;6.40;87.10;;;;;;12505601;28;20037;-75
2024/01/02 06:10:22;;;;;;;15.57;12.73;;;6.60;87.00;;;;;;12505435;28;20442;-75
2024/01/02 06:16:24;;;;;;;13.60;11.80;;;6.40;86.70;;;;;;12504483;28;20446;-75
2024/01/02 06:22:25;;;;;;;26.35;20.35;;;6.20;86.80;;;;;;12487361;28;20034;-75
2024/01/02 06:28:27;;;;;;;24.23;13.77;;;6.10;86.70;;;;;;12504714;28;20346;-75
2024/01/02 06:34:29;;;;;;;26.92;18.30;;;5.90;86.60;;;;;;12504586;28;20025;-75
2024/01/02 06:40:30;;;;;;;18.13;13.52;;;5.70;86.70;;;;;;12470711;28;20098;-75
2024/01/02 06:46:32;;;;;;;17.83;12.57;;;5.80;86.80;;;;;;12504305;28;20427;-75
2024/01/02 06:52:33;;;;;;;14.48;10.05;;;5.90;87.00;;;;;;12504103;28;20035;-75
2024/01/02 06:58:36;;;;;;;14.38;10.05;;;6.10;87.20;;;;;;12606074;22;20044;-75
2024/01/02 07:04:38;;;;;;;12.75;9.80;;;6.20;87.00;;;;;;12686350;28;20425;-75
2024/01/02 07:10:41;;;;;;;14.88;10.60;;;6.40;87.00;;;;;;12703641;28;20040;-73
2024/01/02 07:16:44;;;;;;;15.00;12.80;;;6.50;87.20;;;;;;12709883;28;20031;-73
2024/01/02 07:22:48;;;;;;;16.85;15.05;;;6.70;87.00;;;;;;12695297;28;20031;-73
2024/01/02 07:28:51;;;;;;;20.63;18.55;;;6.80;86.90;;;;;;12697060;28;20428;-73
2024/01/02 07:34:55;;;;;;;19.45;17.50;;;6.70;86.80;;;;;;12712844;28;20020;-73
2024/01/02 07:40:56;;;;;;;18.75;16.95;;;6.70;87.00;;;;;;12712571;28;20047;-73
2024/01/02 07:46:58;;;;;;;20.33;18.50;;;6.80;87.00;;;;;;12712953;28;20026;-73
2024/01/02 07:53:00;;;;;;;26.05;23.67;;;7.00;87.10;;;;;;12711857;28;20031;-73
2024/01/02 07:59:04;;;;;;;30.83;28.08;;;7.20;87.10;;;;;;12677013;28;20055;-73
2024/01/02 08:05:07;;;;;;;31.40;28.55;;;7.50;86.90;;;;;;12711372;28;20028;-73
2024/01/02 08:11:10;;;;;;;45.70;41.60;;;7.60;86.70;;;;;;12710937;28;20343;-73
2024/01/02 08:17:11;;;;;;;44.05;41.20;;;7.70;86.80;;;;;;12710778;28;20035;-73
2024/01/02 08:23:19;;;;;;;30.85;27.88;;;7.70;86.40;;;;;;12675664;28;20066;-73
2024/01/02 08:29:27;;;;;;;29.97;27.23;;;7.70;86.80;;;;;;12708787;28;20042;-73
2024/01/02 08:35:29;;;;;;;39.20;35.73;;;7.60;86.50;;;;;;12709875;28;20077;-73
2024/01/02 08:41:31;;;;;;;31.35;28.75;;;7.20;86.60;;;;;;12691517;28;20054;-73
2024/01/02 08:47:38;;;;;;;32.95;29.48;;;7.20;87.10;;;;;;12691216;28;20043;-72
2024/01/02 08:53:42;;;;;;;28.37;25.83;;;7.00;86.90;;;;;;12708917;28;20032;-72
2024/01/02 08:59:43;;;;;;;34.00;30.33;;;6.80;87.00;;;;;;12708649;28;20035;-72
2024/01/02 09:05:45;;;;;;;30.30;22.25;;;6.80;87.10;;;;;;12708397;28;20024;-73
2024/01/02 09:11:47;;;;;;;25.52;22.30;;;6.80;87.30;;;;;;12708015;28;20043;-72
2024/01/02 09:17:48;;;;;;;30.13;23.13;;;6.80;87.30;;;;;;12707884;28;20027;-72
2024/01/02 09:23:50;;;;;;;32.17;21.55;;;6.90;87.30;;;;;;12707593;28;20031;-72
2024/01/02 09:29:53;;;;;;;24.30;19.08;;;6.90;87.30;;;;;;12689108;28;20036;-72
2024/01/02 09:35:54;;;;;;;60.65;57.25;;;6.90;87.40;;;;;;12706628;28;20024;-72
2024/01/02 09:42:14;;;;;;;44.45;33.58;;;7.00;87.30;;;;;;12706659;28;20039;-72
2024/01/02 09:48:21;;;;;;;29.27;26.15;;;7.00;87.40;;;;;;12688360;28;20024;-72
2024/01/02 09:54:30;;;;;;;28.75;26.05;;;7.00;87.40;;;;;;12706758;28;20032;-72
2024/01/02 10:00:52;;;;;;;26.90;24.50;;;7.10;87.50;;;;;;12705845;28;20034;-72
2024/01/02 10:07:21;;;;;;;26.52;23.92;;;7.10;87.40;;;;;;12687593;28;20040;-72
2024/01/02 10:13:36;;;;;;;45.17;42.53;;;7.10;87.40;;;;;;12687257;28;20035;-72
2024/01/02 10:19:54;;;;;;;31.10;28.80;;;7.20;87.60;;;;;;12687085;28;20038;-72
2024/01/02 10:26:00;;;;;;;29.85;27.08;;;7.30;87.80;;;;;;12687086;28;20032;-72
2024/01/02 10:32:13;;;;;;;55.45;51.30;;;7.40;87.70;;;;;;12704650;28;20035;-72
2024/01/02 10:38:46;;;;;;;26.02;21.55;;;7.70;87.70;;;;;;12686534;28;20046;-72
2024/01/02 10:45:13;;;;;;;147.07;139.55;;;7.90;87.80;;;;;;12704450;28;20035;-72
2024/01/02 10:51:40;;;;;;;53.90;49.80;;;8.00;87.70;;;;;;12553567;28;20036;-72
2024/01/02 10:58:03;;;;;;;43.47;40.08;;;8.00;87.80;;;;;;12541149;28;20029;-72
2024/01/02 11:04:32;;;;;;;28.40;22.55;;;7.90;87.80;;;;;;12558018;28;20040;-72
2024/01/02 11:10:41;;;;;;;52.17;47.70;;;8.00;88.00;;;;;;12557668;28;20036;-72
2024/01/02 11:16:55;;;;;;;55.25;51.40;;;8.00;88.10;;;;;;12540954;28;20037;-72
2024/01/02 11:23:17;;;;;;;60.20;55.88;;;8.40;88.30;;;;;;12540715;28;20040;-72
2024/01/02 11:29:22;;;;;;;66.60;62.30;;;8.60;87.90;;;;;;12643187;28;20036;-72
2024/01/02 11:35:26;;;;;;;70.88;66.45;;;8.90;88.20;;;;;;12662196;28;20062;-72
2024/01/02 11:41:37;;;;;;;94.20;88.90;;;9.00;87.80;;;;;;12661917;28;20453;-72
2024/01/02 11:47:48;;;;;;;90.93;85.50;;;8.90;87.90;;;;;;12661642;28;20043;-72
2024/01/02 11:54:08;;;;;;;79.75;74.50;;;8.90;88.10;;;;;;12661197;28;20032;-72
2024/01/02 12:00:37;;;;;;;59.83;56.07;;;9.00;88.00;;;;;;12661272;28;20039;-72
2024/01/02 12:07:06;;;;;;;55.33;50.42;;;9.10;88.10;;;;;;12660711;28;20032;-72
2024/01/02 12:13:23;;;;;;;79.80;74.97;;;9.20;88.10;;;;;;12660321;28;20036;-72
2024/01/02 12:19:27;;;;;;;72.78;68.25;;;9.10;88.10;;;;;;12660196;28;20273;-72
2024/01/02 12:25:29;;;;;;;58.80;54.25;;;9.00;88.50;;;;;;12660544;28;20028;-72
2024/01/02 12:31:45;;;;;;;54.03;48.85;;;9.00;88.50;;;;;;12642477;28;20062;-72
2024/01/02 12:38:18;;;;;;;96.60;91.03;;;9.20;88.60;;;;;;12659223;28;20035;-72
2024/01/02 12:44:49;;;;;;;59.58;55.40;;;9.20;88.40;;;;;;12650719;28;20356;-72
2024/01/02 12:50:54;;;;;;;61.63;57.90;;;9.20;88.50;;;;;;12658388;28;20019;-72
2024/01/02 12:57:02;;;;;;;105.68;99.63;;;9.20;88.70;;;;;;12658109;28;20035;-72
2024/01/02 13:03:05;;;;;;;105.83;100.13;;;9.30;88.80;;;;;;12657964;28;20440;-72
2024/01/02 13:09:10;;;;;;;84.70;80.47;;;9.30;88.10;;;;;;12657701;28;20440;-72
2024/01/02 13:15:12;;;;;;;65.55;62.10;;;9.10;88.40;;;;;;12657353;28;20429;-72
2024/01/02 13:21:14;;;;;;;68.45;64.57;;;9.00;88.60;;;;;;12657093;28;20032;-72
2024/01/02 13:27:23;;;;;;;56.75;53.67;;;8.80;88.70;;;;;;12638910;28;20356;-72
2024/01/02 13:33:24;;;;;;;;;;;8.70;88.70;;;;;;12638952;28;20333;-72
2024/01/02 13:39:39;;;;;;;43.42;39.92;;;8.70;88.90;;;;;;12656245;28;19908;-72
2024/01/02 13:45:41;;;;;;;37.13;34.10;;;8.80;88.90;;;;;;12655920;28;20040;-72
2024/01/02 13:51:46;;;;;;;57.10;52.97;;;8.90;89.10;;;;;;12655552;28;20035;-72
2024/01/02 13:57:48;;;;;;;60.55;57.10;;;9.10;89.20;;;;;;12655307;28;20028;-72
2024/01/02 14:03:53;;;;;;;61.17;57.70;;;9.30;88.90;;;;;;12655168;28;20035;-72
2024/01/02 14:09:57;;;;;;;21.80;19.50;;;9.10;88.40;;;;;;12654845;28;20036;-72
2024/01/02 14:16:04;;;;;;;43.08;40.13;;;8.90;88.60;;;;;;12654744;28;20028;-75
2024/01/02 14:22:16;;;;;;;60.03;55.95;;;8.70;88.50;;;;;;12654476;28;20032;-75
2024/01/02 14:28:22;;;;;;;64.47;60.05;;;8.80;89.20;;;;;;12636333;28;20036;-76
2024/01/02 14:34:46;;;;;;;52.85;49.78;;;9.00;88.90;;;;;;12653995;28;20036;-74
2024/01/02 14:41:15;;;;;;;50.88;47.38;;;8.90;88.20;;;;;;12713543;27;20329;-74
2024/01/02 14:47:29;;;;;;;31.23;28.73;;;8.80;88.80;;;;;;12705084;28;20340;-75
2024/01/02 14:53:47;;;;;;;56.15;52.88;;;9.10;88.70;;;;;;12686090;28;20061;-75
2024/01/02 15:00:08;;;;;;;39.78;36.92;;;9.00;88.20;;;;;;12673759;22;20048;-74
2024/01/02 15:06:22;;;;;;;42.05;39.05;;;8.90;88.50;;;;;;12653241;28;20050;-75
2024/01/02 15:12:37;;;;;;;35.30;32.92;;;8.80;88.20;;;;;;12619020;28;20040;-74
2024/01/02 15:19:02;;;;;;;26.58;24.42;;;8.60;88.40;;;;;;12652991;28;20035;-75
2024/01/02 15:25:32;;;;;;;37.08;34.33;;;8.40;88.50;;;;;;12539686;28;20041;-75
2024/01/02 15:31:38;;;;;;;71.18;67.22;;;8.30;88.60;;;;;;12547181;28;20040;-75
2024/01/02 15:37:58;;;;;;;33.40;30.45;;;8.20;88.70;;;;;;12536349;28;20032;-74
2024/01/02 15:44:30;;;;;;;35.22;32.33;;;8.50;88.90;;;;;;12539762;28;20350;-75
2024/01/02 15:50:41;;;;;;;47.05;43.50;;;8.70;88.40;;;;;;12555995;28;20041;-75
2024/01/02 15:56:50;;;;;;;47.25;44.00;;;8.80;88.50;;;;;;12539864;28;20051;-75
2024/01/02 16:03:25;;;;;;;44.63;41.38;;;8.90;88.20;;;;;;12647511;28;20043;-74
2024/01/02 16:09:57;;;;;;;46.53;42.95;;;8.80;88.00;;;;;;12660508;28;20032;-75
2024/01/02 16:16:17;;;;;;;34.17;31.60;;;8.70;88.20;;;;;;12642897;28;20376;-75
2024/01/02 16:22:37;;;;;;;38.70;35.70;;;8.50;88.20;;;;;;12641966;28;20039;-75
2024/01/02 16:28:57;;;;;;;28.25;25.75;;;8.50;88.40;;;;;;12642483;28;20031;-75
2024/01/02 16:35:20;;;;;;;39.55;36.63;;;8.60;88.20;;;;;;12659494;28;20379;-75
2024/01/02 16:41:22;;;;;;;40.78;37.40;;;8.80;88.40;;;;;;12641334;28;20047;-74
2024/01/02 16:47:24;;;;;;;48.63;45.67;;;8.90;88.10;;;;;;12628035;28;20040;-75
2024/01/02 16:53:27;;;;;;;58.88;55.15;;;9.00;88.00;;;;;;12605503;28;20040;-74
2024/01/02 16:59:29;;;;;;;46.17;42.70;;;8.70;88.00;;;;;;12618084;28;20048;-74
2024/01/02 17:05:35;;;;;;;43.97;40.63;;;8.60;88.10;;;;;;12584857;28;20476;-74
2024/01/02 17:11:37;;;;;;;33.70;31.23;;;8.70;88.40;;;;;;12601553;28;20033;-75
2024/01/02 17:17:40;;;;;;;45.97;42.50;;;8.80;88.00;;;;;;12603057;28;20023;-75
2024/01/02 17:23:42;;;;;;;47.83;44.15;;;8.70;88.10;;;;;;12616037;28;20039;-75
2024/01/02 17:29:45;;;;;;;46.22;42.88;;;8.60;88.30;;;;;;12657149;28;20035;-74
2024/01/02 17:35:47;;;;;;;50.97;46.83;;;8.70;88.20;;;;;;12656075;28;20333;-74
2024/01/02 17:41:49;;;;;;;51.60;47.95;;;9.00;88.20;;;;;;12600666;28;20039;-74
2024/01/02 17:48:13;;;;;;;43.53;39.90;;;9.20;88.10;;;;;;12582761;28;20043;-74
2024/01/02 17:54:16;;;;;;;57.17;53.33;;;9.20;87.70;;;;;;12599407;28;20032;-74
2024/01/02 18:00:21;;;;;;;30.92;28.05;;;8.90;88.00;;;;;;12639646;28;20046;-74
2024/01/02 18:06:29;;;;;;;42.47;39.15;;;9.10;88.00;;;;;;12637676;28;20034;-74
2024/01/02 18:12:47;;;;;;;34.35;30.98;;;9.20;87.80;;;;;;12637188;28;20050;-74
2024/01/02 18:19:16;;;;;;;77.20;73.00;;;9.20;87.80;;;;;;12655245;28;20028;-74
2024/01/02 18:25:34;;;;;;;59.43;55.80;;;9.20;87.50;;;;;;12655034;28;20352;-74
2024/01/02 18:31:50;;;;;;;51.15;46.97;;;8.90;87.40;;;;;;12653997;28;20032;-74
2024/01/02 18:38:07;;;;;;;40.55;37.42;;;8.80;87.80;;;;;;12636270;28;20040;-74
2024/01/02 18:44:16;;;;;;;49.47;45.92;;;8.80;87.90;;;;;;12637521;28;20035;-74
2024/01/02 18:50:19;;;;;;;19.17;15.27;;;8.70;87.70;;;;;;12575686;28;20488;-74
2024/01/02 18:56:21;;;;;;;43.80;40.45;;;8.50;87.90;;;;;;12598111;28;20039;-74
2024/01/02 19:02:22;;;;;;;53.00;48.65;;;8.60;88.10;;;;;;12598272;28;20037;-74
2024/01/02 19:08:24;;;;;;;43.10;39.60;;;8.80;88.10;;;;;;12599928;28;20029;-74
2024/01/02 19:14:26;;;;;;;69.95;64.80;;;9.00;88.00;;;;;;12608935;28;20365;-74
2024/01/02 19:20:28;;;;;;;56.42;52.58;;;9.20;88.00;;;;;;12622914;28;20040;-74
2024/01/02 19:26:33;;;;;;;58.13;53.63;;;9.20;87.90;;;;;;12607808;28;20352;-74
2024/01/02 19:32:35;;;;;;;55.60;51.63;;;9.20;87.70;;;;;;12609929;28;20028;-75
2024/01/02 19:38:37;;;;;;;70.25;66.05;;;9.20;87.60;;;;;;12606170;28;20441;-76
2024/01/02 19:44:39;;;;;;;65.88;61.60;;;9.20;87.50;;;;;;12605537;28;20047;-76
2024/01/02 19:50:41;;;;;;;34.08;27.98;;;9.20;87.80;;;;;;12621445;28;20484;-76
2024/01/02 19:56:43;;;;;;;68.95;64.32;;;9.10;87.70;;;;;;12605201;28;20032;-75
2024/01/02 20:02:46;;;;;;;53.85;50.28;;;9.10;87.70;;;;;;12620864;28;20032;-75
2024/01/02 20:08:48;;;;;;;56.72;52.72;;;9.10;87.50;;;;;;12586528;28;20458;-75
2024/01/02 20:14:50;;;;;;;51.15;47.22;;;8.90;87.50;;;;;;12654085;28;20040;-75
2024/01/02 20:21:09;;;;;;;55.75;51.67;;;8.90;87.60;;;;;;12642684;28;20340;-75
2024/01/02 20:27:26;;;;;;;30.17;21.27;;;9.00;87.70;;;;;;12642606;28;20032;-75
2024/01/02 20:33:36;;;;;;;54.97;50.55;;;9.10;87.70;;;;;;12660275;28;20039;-75
2024/01/02 20:39:37;;;;;;;70.35;65.78;;;9.00;87.50;;;;;;12660057;28;20035;-75
2024/01/02 20:45:39;;;;;;;57.15;53.17;;;9.00;87.50;;;;;;12641306;28;20036;-75
2024/01/02 20:51:44;;;;;;;60.95;56.58;;;8.90;87.30;;;;;;12658647;28;20047;-75
2024/01/02 20:57:46;;;;;;;52.75;48.67;;;8.80;87.50;;;;;;12658413;28;20023;-75
2024/01/02 21:04:00;;;;;;;38.25;35.38;;;8.70;87.40;;;;;;12658310;28;20448;-75
2024/01/02 21:10:23;;;;;;;43.47;40.05;;;8.70;87.40;;;;;;12639366;28;20461;-75
2024/01/02 21:16:24;;;;;;;20.58;16.45;;;8.50;87.60;;;;;;12640285;28;20036;-75
2024/01/02 21:22:32;;;;;;;44.25;41.05;;;8.60;87.70;;;;;;12657872;28;20035;-76
2024/01/02 21:28:33;;;;;;;44.38;41.05;;;8.70;87.50;;;;;;12657779;28;20051;-75
2024/01/02 21:34:35;;;;;;;30.70;24.23;;;8.70;87.30;;;;;;12622111;28;20062;-75
2024/01/02 21:41:04;;;;;;;65.60;61.42;;;8.70;87.60;;;;;;12656536;28;20036;-75
2024/01/02 21:47:08;;;;;;;64.25;59.85;;;8.70;87.80;;;;;;12656829;28;20452;-75
2024/01/02 21:53:10;;;;;;;30.05;26.77;;;8.70;87.70;;;;;;12656456;28;20028;-75
2024/01/02 21:59:21;;;;;;;53.70;49.75;;;8.80;87.50;;;;;;12655069;28;20024;-75
2024/01/02 22:05:23;;;;;;;38.15;35.13;;;8.70;87.40;;;;;;12619439;28;20032;-73
2024/01/02 22:11:46;;;;;;;38.80;35.45;;;8.50;87.60;;;;;;12635030;28;20036;-73
2024/01/02 22:17:48;;;;;;;39.80;36.60;;;8.40;87.70;;;;;;12635502;28;20035;-73
2024/01/02 22:23:51;;;;;;;41.83;38.45;;;8.50;87.70;;;;;;12653342;28;20436;-73
2024/01/02 22:29:53;;;;;;;23.38;19.85;;;8.70;87.50;;;;;;12635139;28;20039;-73
2024/01/02 22:35:54;;;;;;;37.28;34.25;;;8.60;87.70;;;;;;12652849;28;20027;-72
2024/01/02 22:41:56;;;;;;;49.30;45.45;;;8.70;87.60;;;;;;12651990;28;20036;-73
2024/01/02 22:47:58;;;;;;;38.67;35.17;;;8.60;87.60;;;;;;12633163;28;20436;-73
2024/01/02 22:53:59;;;;;;;25.30;22.63;;;8.50;87.50;;;;;;12652196;28;20039;-73
2024/01/02 23:00:14;;;;;;;22.30;17.70;;;8.30;87.50;;;;;;12562155;22;1393637;-73
2024/01/02 23:06:17;;;;;;;27.70;21.60;;;8.30;87.70;;;;;;12586171;28;20051;-73
2024/01/02 23:12:25;;;;;;;46.67;43.00;;;8.40;87.80;;;;;;12585967;28;20055;-73
2024/01/02 23:18:27;;;;;;;66.22;62.22;;;8.50;87.60;;;;;;12585132;28;20032;-73
2024/01/02 23:24:30;;;;;;;34.97;31.45;;;8.60;87.50;;;;;;12585773;28;20033;-73
2024/01/02 23:30:54;;;;;;;45.97;42.40;;;8.50;87.50;;;;;;12603345;28;20032;-73
2024/01/02 23:36:56;;;;;;;52.22;48.55;;;8.40;87.70;;;;;;12585582;28;20043;-73
2024/01/02 23:42:59;;;;;;;30.20;27.30;;;8.50;87.70;;;;;;12601937;28;20032;-73
2024/01/02 23:49:01;;;;;;;25.73;22.05;;;8.60;87.50;;;;;;12584411;28;20024;-73
2024/01/02 23:55:03;;;;;;;38.78;35.83;;;8.60;87.40;;;;;;12602169;28;20032;-73
